createdAt,value
2016-12-09T00:00:31.842Z,81.38
2016-12-09T00:01:42.322Z,81.87
2016-12-09T00:02:52.771Z,81.57
2016-12-09T00:04:03.222Z,82.35
2016-12-09T00:05:13.685Z,81.67
2016-12-09T00:06:24.175Z,81.77
2016-12-09T00:07:34.649Z,82.35
2016-12-09T00:08:45.117Z,81.48
2016-12-09T00:09:55.601Z,81.81
2016-12-09T00:11:06.105Z,82.25
2016-12-09T00:12:16.592Z,82.54
2016-12-09T00:13:27.099Z,82.35
2016-12-09T00:14:37.615Z,82.73
2016-12-09T00:15:48.368Z,82.83
2016-12-09T00:16:58.922Z,82.35
2016-12-09T00:18:09.492Z,82.54
2016-12-09T00:19:20.057Z,82.25
2016-12-09T00:20:30.619Z,82.15
2016-12-09T00:21:41.701Z,82.35
2016-12-09T00:22:52.268Z,82.45
2016-12-09T00:24:02.826Z,82.45
2016-12-09T00:25:13.394Z,82.45
2016-12-09T00:26:23.950Z,82.54
2016-12-09T00:27:34.725Z,82.35
2016-12-09T00:28:45.313Z,82.64
2016-12-09T00:29:55.875Z,82.15
2016-12-09T00:31:06.453Z,81.96
2016-12-09T00:32:17.047Z,82.73
2016-12-09T00:33:27.626Z,82.45
2016-12-09T00:34:38.208Z,82.54
2016-12-09T00:36:03.277Z,82.54
2016-12-09T00:37:13.835Z,82.45
2016-12-09T00:38:24.414Z,82.25
2016-12-09T00:39:34.949Z,82.35
2016-12-09T00:40:45.515Z,81.77
2016-12-09T00:41:56.105Z,81.96
2016-12-09T00:43:06.691Z,82.06
2016-12-09T00:44:17.250Z,81.77
2016-12-09T00:45:27.814Z,82.35
2016-12-09T00:46:38.366Z,81.96
2016-12-09T00:47:49.339Z,82.45
2016-12-09T00:49:14.424Z,81.77
2016-12-09T00:50:25.174Z,81.96
2016-12-09T00:51:35.749Z,82.45
2016-12-09T00:52:46.305Z,82.45
2016-12-09T00:53:56.868Z,82.35
2016-12-09T00:55:08.147Z,82.93
2016-12-09T00:56:18.705Z,83.22
2016-12-09T00:57:29.261Z,84.19
2016-12-09T00:58:54.536Z,83.89
2016-12-09T01:00:05.100Z,83.8
2016-12-09T01:01:15.785Z,83.95
2016-12-09T01:02:26.252Z,83.7
2016-12-09T01:03:36.710Z,83.22
2016-12-09T01:04:47.164Z,83.99
2016-12-09T01:05:57.828Z,83.31
2016-12-09T01:07:08.309Z,83.61
2016-12-09T01:08:18.780Z,83.12
2016-12-09T01:09:29.255Z,83.51
2016-12-09T01:10:39.727Z,83.41
2016-12-09T01:11:50.198Z,84.09
2016-12-09T01:13:00.680Z,83.99
2016-12-09T01:15:36.145Z,83.18
2016-12-09T01:17:01.379Z,83.51
2016-12-09T01:18:11.874Z,83.37
2016-12-09T01:19:22.376Z,83.31
2016-12-09T01:20:32.852Z,83.41
2016-12-09T01:21:43.324Z,84.09
2016-12-09T01:22:54.003Z,83.41
2016-12-09T01:24:04.484Z,83.51
2016-12-09T01:25:14.954Z,82.93
2016-12-09T01:26:25.433Z,82.64
2016-12-09T01:27:35.908Z,83.03
2016-12-09T01:28:46.604Z,82.35
2016-12-09T01:29:57.074Z,82.45
2016-12-09T01:31:07.567Z,82.25
2016-12-09T01:32:32.575Z,82.64
2016-12-09T01:33:43.050Z,82.35
2016-12-09T01:34:53.737Z,82.48
2016-12-09T01:36:04.220Z,82.35
2016-12-09T01:38:39.712Z,82.48
2016-12-09T01:39:50.203Z,82.68
2016-12-09T01:41:00.679Z,82.64
2016-12-09T01:42:11.342Z,82.29
2016-12-09T01:43:21.818Z,82.39
2016-12-09T01:44:32.539Z,82.68
2016-12-09T01:45:43.117Z,82.54
2016-12-09T01:46:53.716Z,81.87
2016-12-09T01:48:04.294Z,82.87
2016-12-09T01:49:14.855Z,82.29
2016-12-09T01:50:25.622Z,81.81
2016-12-09T01:51:36.186Z,82.48
2016-12-09T01:52:46.741Z,82.2
2016-12-09T01:53:57.295Z,82.48
2016-12-09T01:55:07.861Z,82.58
2016-12-09T01:56:18.433Z,82.97
2016-12-09T01:57:29.001Z,83.16
2016-12-09T01:58:39.564Z,82.39
2016-12-09T01:59:50.158Z,82.78
2016-12-09T02:01:00.773Z,82.2
2016-12-09T02:02:11.543Z,83.16
2016-12-09T02:03:22.113Z,82.29
2016-12-09T02:04:32.679Z,82.39
2016-12-09T02:05:43.269Z,82.39
2016-12-09T02:06:53.855Z,82.48
2016-12-09T02:08:04.641Z,82.39
2016-12-09T02:09:15.206Z,82.39
2016-12-09T02:10:25.783Z,81.81
2016-12-09T02:11:36.339Z,81.9
2016-12-09T02:13:01.456Z,81.81
2016-12-09T02:14:12.222Z,82.68
2016-12-09T02:15:22.805Z,82.2
2016-12-09T02:16:33.384Z,81.9
2016-12-09T02:17:43.942Z,82.39
2016-12-09T02:18:54.519Z,82.39
2016-12-09T02:20:05.098Z,82.39
2016-12-09T02:21:15.664Z,82.1
2016-12-09T02:22:26.231Z,81.81
2016-12-09T02:23:36.817Z,81.81
2016-12-09T02:24:47.905Z,81.81
2016-12-09T02:25:58.491Z,82.2
2016-12-09T02:27:09.076Z,82.1
2016-12-09T02:28:19.653Z,82.39
2016-12-09T02:29:30.211Z,82.48
2016-12-09T02:30:40.963Z,82.2
2016-12-09T02:31:51.516Z,82.78
2016-12-09T02:34:27.164Z,82.39
2016-12-09T02:35:52.456Z,81.42
2016-12-09T02:37:17.555Z,81.81
2016-12-09T02:38:28.322Z,81.62
2016-12-09T02:39:38.909Z,81.9
2016-12-09T02:40:49.471Z,81.81
2016-12-09T02:42:00.443Z,81.81
2016-12-09T02:43:11.012Z,82.2
2016-12-09T02:44:21.571Z,82
2016-12-09T02:45:46.664Z,81.62
2016-12-09T02:46:57.367Z,81.85
2016-12-09T02:48:07.921Z,81.62
2016-12-09T02:49:18.495Z,81.65
2016-12-09T02:50:29.065Z,81.52
2016-12-09T02:51:39.879Z,82
2016-12-09T02:52:50.457Z,82.04
2016-12-09T02:54:01.024Z,82.14
2016-12-09T02:55:11.582Z,81.65
2016-12-09T02:56:22.132Z,81.9
2016-12-09T02:57:32.715Z,81.42
2016-12-09T02:58:43.320Z,81.32
2016-12-09T02:59:53.908Z,80.94
2016-12-09T03:01:04.472Z,80.94
2016-12-09T03:02:15.043Z,80.55
2016-12-09T03:03:25.721Z,81.62
2016-12-09T03:04:36.272Z,80.65
2016-12-09T03:05:46.849Z,80.55
2016-12-09T03:06:57.424Z,80.84
2016-12-09T03:08:07.975Z,80.8
2016-12-09T03:09:19.136Z,81.09
2016-12-09T03:10:29.695Z,81.29
2016-12-09T03:11:40.269Z,81.48
2016-12-09T03:12:50.832Z,81.67
2016-12-09T03:14:01.393Z,81.19
2016-12-09T03:15:12.093Z,81.57
2016-12-09T03:16:22.549Z,80.9
2016-12-09T03:17:33.027Z,81.04
2016-12-09T03:18:43.502Z,80.32
2016-12-09T03:19:53.974Z,80.61
2016-12-09T03:21:04.641Z,80.51
2016-12-09T03:22:15.111Z,80.9
2016-12-09T03:23:25.613Z,81.38
2016-12-09T03:24:36.094Z,81.57
2016-12-09T03:25:46.553Z,80.41
2016-12-09T03:26:57.216Z,80.99
2016-12-09T03:28:07.686Z,80.8
2016-12-09T03:29:18.186Z,80.61
2016-12-09T03:30:28.658Z,80.51
2016-12-09T03:33:04.635Z,80.61
2016-12-09T03:34:15.119Z,80.16
2016-12-09T03:35:25.603Z,80.26
2016-12-09T03:36:36.298Z,80.26
2016-12-09T03:37:46.747Z,80.36
2016-12-09T03:38:57.212Z,80.07
2016-12-09T03:40:07.695Z,79.78
2016-12-09T03:41:18.170Z,79.97
2016-12-09T03:42:28.657Z,79.1
2016-12-09T03:43:39.244Z,79.58
2016-12-09T03:44:49.709Z,79.78
2016-12-09T03:46:00.172Z,80.07
2016-12-09T03:47:10.661Z,79.49
2016-12-09T03:48:21.133Z,79.58
2016-12-09T03:49:31.601Z,79.87
2016-12-09T03:50:42.064Z,79.62
2016-12-09T03:51:53.048Z,79.58
2016-12-09T03:53:03.528Z,79.29
2016-12-09T03:54:14.016Z,79.49
2016-12-09T03:55:24.572Z,78.91
2016-12-09T03:56:49.584Z,79.58
2016-12-09T03:58:00.045Z,79.29
2016-12-09T03:59:10.524Z,79.39
2016-12-09T04:00:21.001Z,79.58
2016-12-09T04:01:31.464Z,80.16
2016-12-09T04:02:41.976Z,80.55
2016-12-09T04:03:52.462Z,79.78
2016-12-09T04:05:02.937Z,79.97
2016-12-09T04:06:13.396Z,80.26
2016-12-09T04:07:23.886Z,79.78
2016-12-09T04:08:34.342Z,79.87
2016-12-09T04:09:44.818Z,79.68
2016-12-09T04:10:55.301Z,79.68
2016-12-09T04:12:05.992Z,79.39
2016-12-09T04:13:16.460Z,79.29
2016-12-09T04:14:26.934Z,79.68
2016-12-09T04:15:37.422Z,79.78
2016-12-09T04:16:47.891Z,79.58
2016-12-09T04:17:58.573Z,79.87
2016-12-09T04:19:09.022Z,80.26
2016-12-09T04:20:19.493Z,79.87
2016-12-09T04:21:29.960Z,80.26
2016-12-09T04:22:40.434Z,80.9
2016-12-09T04:23:51.100Z,80.61
2016-12-09T04:25:01.594Z,80.99
2016-12-09T04:26:12.069Z,81.57
2016-12-09T04:27:22.529Z,81.57
2016-12-09T04:28:32.999Z,81.57
2016-12-09T04:29:43.663Z,82.35
2016-12-09T04:30:54.118Z,82.15
2016-12-09T04:32:04.589Z,81.77
2016-12-09T04:33:15.064Z,81.96
2016-12-09T04:34:25.539Z,82.73
2016-12-09T04:35:35.982Z,82.45
2016-12-09T04:36:46.468Z,82.45
2016-12-09T04:37:56.972Z,82.93
2016-12-09T04:39:07.449Z,83.03
2016-12-09T04:40:17.920Z,83.03
2016-12-09T04:41:28.387Z,83.61
2016-12-09T04:42:38.850Z,83.41
2016-12-09T04:43:49.317Z,83.41
2016-12-09T04:45:14.371Z,83.31
2016-12-09T04:46:24.920Z,84.28
2016-12-09T04:47:35.652Z,83.41
2016-12-09T04:48:46.220Z,84.09
2016-12-09T04:49:56.762Z,83.31
2016-12-09T04:51:07.272Z,83.22
2016-12-09T04:52:17.902Z,83.61
2016-12-09T04:53:28.350Z,84.28
2016-12-09T04:54:38.773Z,84.28
2016-12-09T04:55:49.201Z,84.38
2016-12-09T04:56:59.633Z,84.47
2016-12-09T04:58:10.254Z,84.19
2016-12-09T04:59:20.678Z,84.86
2016-12-09T05:00:31.093Z,84.67
2016-12-09T05:01:41.509Z,84.77
2016-12-09T05:02:51.933Z,85.25
2016-12-09T05:04:02.352Z,84.47
2016-12-09T05:05:12.766Z,84.47
2016-12-09T05:06:23.182Z,84.8
2016-12-09T05:07:33.602Z,84.67
2016-12-09T05:08:44.019Z,85.05
2016-12-09T05:09:54.637Z,85.15
2016-12-09T05:11:05.056Z,85.15
2016-12-09T05:12:15.483Z,85.35
2016-12-09T05:13:25.893Z,86.02
2016-12-09T05:14:50.849Z,85.93
2016-12-09T05:16:01.273Z,86.02
2016-12-09T05:17:12.166Z,86.31
2016-12-09T05:18:22.578Z,86.51
2016-12-09T05:19:32.989Z,86.11
2016-12-09T05:20:44.092Z,86.79
2016-12-09T05:21:54.504Z,86.02
2016-12-09T05:23:04.916Z,85.73
2016-12-09T05:24:15.329Z,86.51
2016-12-09T05:25:25.747Z,86.31
2016-12-09T05:26:36.153Z,86.79
2016-12-09T05:27:46.564Z,86.31
2016-12-09T05:28:56.976Z,86.65
2016-12-09T05:30:07.835Z,86.69
2016-12-09T05:31:18.153Z,86.31
2016-12-09T05:32:28.712Z,86.69
2016-12-09T05:33:39.029Z,86.69
2016-12-09T05:34:49.352Z,86.6
2016-12-09T05:35:59.669Z,86.51
2016-12-09T05:37:09.986Z,86.21
2016-12-09T05:38:20.405Z,85.35
2016-12-09T05:39:30.722Z,84.86
2016-12-09T05:40:41.039Z,85.25
2016-12-09T05:41:51.361Z,85.15
2016-12-09T05:43:01.688Z,86.31
2016-12-09T05:44:12.004Z,85.78
2016-12-09T05:45:36.892Z,86.56
2016-12-09T05:46:47.246Z,85.63
2016-12-09T05:47:57.560Z,85.73
2016-12-09T05:49:07.881Z,86.36
2016-12-09T05:50:18.204Z,86.65
2016-12-09T05:51:43.090Z,86.65
2016-12-09T05:52:53.412Z,86.07
2016-12-09T05:54:03.738Z,85.4
2016-12-09T05:55:14.057Z,85.93
2016-12-09T05:56:24.374Z,85.63
2016-12-09T05:57:34.697Z,85.35
2016-12-09T05:58:45.020Z,85.53
2016-12-09T06:00:09.963Z,85.3
2016-12-09T06:01:20.599Z,85.44
2016-12-09T06:02:31.036Z,85.4
2016-12-09T06:03:41.472Z,85.49
2016-12-09T06:04:51.907Z,85.11
2016-12-09T06:06:02.346Z,85.49
2016-12-09T06:07:12.784Z,85.05
2016-12-09T06:08:23.224Z,85.21
2016-12-09T06:09:33.673Z,85.59
2016-12-09T06:10:44.115Z,84.86
2016-12-09T06:11:54.756Z,84.28
2016-12-09T06:13:05.191Z,84.67
2016-12-09T06:14:15.631Z,84.77
2016-12-09T06:15:26.064Z,84.67
2016-12-09T06:16:36.505Z,85.35
2016-12-09T06:17:47.141Z,85.4
2016-12-09T06:18:57.577Z,86.07
2016-12-09T06:20:08.015Z,85.21
2016-12-09T06:21:18.448Z,85.49
2016-12-09T06:22:28.887Z,85.4
2016-12-09T06:23:39.322Z,85.49
2016-12-09T06:24:49.759Z,85.49
2016-12-09T06:26:00.194Z,84.82
2016-12-09T06:27:10.637Z,85.4
2016-12-09T06:28:35.628Z,86.07
2016-12-09T06:29:46.263Z,86.71
2016-12-09T06:30:56.700Z,86.61
2016-12-09T06:32:07.627Z,86.03
2016-12-09T06:33:18.064Z,85.98
2016-12-09T06:34:28.674Z,85.59
2016-12-09T06:35:38.990Z,85.69
2016-12-09T06:36:49.316Z,85.49
2016-12-09T06:37:59.632Z,85.49
2016-12-09T06:40:34.854Z,85.3
2016-12-09T06:41:45.173Z,86.56
2016-12-09T06:42:55.491Z,86.27
2016-12-09T06:44:05.811Z,86.52
2016-12-09T06:45:16.326Z,86.42
2016-12-09T06:46:26.647Z,86.27
2016-12-09T06:47:36.962Z,86.56
2016-12-09T06:48:47.283Z,86.75
2016-12-09T06:49:57.600Z,86.52
2016-12-09T06:51:08.121Z,86.94
2016-12-09T06:52:18.439Z,87.38
2016-12-09T06:53:43.354Z,87.96
2016-12-09T06:54:53.670Z,88.35
2016-12-09T06:56:03.995Z,88.59
2016-12-09T06:57:14.521Z,87.77
2016-12-09T06:58:24.837Z,87.48
2016-12-09T06:59:35.159Z,87.87
2016-12-09T07:00:45.478Z,87.67
2016-12-09T07:01:55.998Z,87.67
2016-12-09T07:03:06.320Z,87.87
2016-12-09T07:04:16.642Z,87.48
2016-12-09T07:05:26.956Z,87.58
2016-12-09T07:06:37.271Z,87.77
2016-12-09T07:07:47.792Z,87.58
2016-12-09T07:08:58.110Z,87.38
2016-12-09T07:10:08.429Z,87.38
2016-12-09T07:11:18.749Z,87.29
2016-12-09T07:12:29.068Z,86.9
2016-12-09T07:13:39.591Z,87.38
2016-12-09T07:14:49.908Z,87.67
2016-12-09T07:16:00.233Z,87.77
2016-12-09T07:17:10.552Z,87.92
2016-12-09T07:18:20.877Z,88.31
2016-12-09T07:19:31.200Z,88.59
2016-12-09T07:20:41.518Z,88.31
2016-12-09T07:21:51.838Z,88.21
2016-12-09T07:23:02.156Z,88.69
2016-12-09T07:24:12.476Z,88.4
2016-12-09T07:25:22.994Z,88.4
2016-12-09T07:26:33.311Z,88.4
2016-12-09T07:27:43.626Z,87.73
2016-12-09T07:28:53.943Z,87.82
2016-12-09T07:30:04.262Z,87.77
2016-12-09T07:31:14.580Z,87.73
2016-12-09T07:32:24.901Z,87.73
2016-12-09T07:33:35.219Z,87.63
2016-12-09T07:34:45.536Z,87.92
2016-12-09T07:35:55.852Z,87.73
2016-12-09T07:37:06.171Z,87.73
2016-12-09T07:38:16.487Z,87.82
2016-12-09T07:39:26.800Z,87.63
2016-12-09T07:40:37.115Z,87.34
2016-12-09T07:41:47.433Z,87.48
2016-12-09T07:42:57.950Z,87.73
2016-12-09T07:44:08.266Z,87.73
2016-12-09T07:45:18.585Z,88.31
2016-12-09T07:46:28.900Z,88.4
2016-12-09T07:47:53.791Z,88.89
2016-12-09T07:49:04.310Z,88.93
2016-12-09T07:50:14.628Z,88.75
2016-12-09T07:51:24.944Z,88.93
2016-12-09T07:52:35.261Z,88.93
2016-12-09T07:53:45.776Z,89.13
2016-12-09T07:54:56.098Z,88.75
2016-12-09T07:56:06.415Z,88.89
2016-12-09T07:57:16.733Z,88.59
2016-12-09T07:58:27.057Z,88.31
2016-12-09T07:59:37.373Z,88.21
2016-12-09T08:00:47.696Z,87.82
2016-12-09T08:02:12.590Z,88.31
2016-12-09T08:03:22.907Z,87.53
2016-12-09T08:04:33.220Z,88.31
2016-12-09T08:05:43.741Z,88.59
2016-12-09T08:06:54.062Z,88.5
2016-12-09T08:08:04.379Z,87.53
2016-12-09T08:09:14.702Z,87.53
2016-12-09T08:10:25.215Z,87.53
2016-12-09T08:11:35.537Z,87.34
2016-12-09T08:12:45.855Z,87.82
2016-12-09T08:13:56.170Z,87.63
2016-12-09T08:15:06.488Z,87.53
2016-12-09T08:16:17.004Z,87.34
2016-12-09T08:17:27.319Z,87.34
2016-12-09T08:20:02.521Z,86.96
2016-12-09T08:21:12.841Z,87.05
2016-12-09T08:22:23.361Z,87.34
2016-12-09T08:23:33.677Z,87.34
2016-12-09T08:24:44.001Z,86.86
2016-12-09T08:25:54.320Z,86.96
2016-12-09T08:27:04.836Z,87.24
2016-12-09T08:28:15.155Z,87.63
2016-12-09T08:29:40.080Z,87.73
2016-12-09T08:30:50.516Z,87.05
2016-12-09T08:32:15.678Z,87.34
2016-12-09T08:33:26.087Z,87.05
2016-12-09T08:34:36.499Z,86.96
2016-12-09T08:35:46.904Z,86.96
2016-12-09T08:36:57.311Z,87.15
2016-12-09T08:38:07.718Z,86.86
2016-12-09T08:39:18.126Z,86.76
2016-12-09T08:40:28.536Z,87.15
2016-12-09T08:41:38.945Z,87.05
2016-12-09T08:43:03.907Z,87.63
2016-12-09T08:44:14.318Z,87.63
2016-12-09T08:45:24.726Z,87.44
2016-12-09T08:46:35.134Z,87.44
2016-12-09T08:47:45.539Z,87.34
2016-12-09T08:48:56.154Z,87.53
2016-12-09T08:50:06.563Z,86.96
2016-12-09T08:51:16.972Z,86.86
2016-12-09T08:52:27.378Z,86.76
2016-12-09T08:53:37.794Z,87.15
2016-12-09T08:54:48.202Z,86.86
2016-12-09T08:55:58.691Z,86.8
2016-12-09T08:57:09.218Z,86.71
2016-12-09T08:58:19.745Z,86.8
2016-12-09T08:59:30.273Z,86.71
2016-12-09T09:00:41.000Z,86.52
2016-12-09T09:01:51.557Z,86.03
2016-12-09T09:03:02.087Z,85.45
2016-12-09T09:04:12.614Z,85.26
2016-12-09T09:05:23.140Z,85.16
2016-12-09T09:06:33.666Z,85.01
2016-12-09T09:07:58.721Z,85.11
2016-12-09T09:09:09.249Z,85.4
2016-12-09T09:10:19.779Z,84.63
2016-12-09T09:11:30.305Z,84.53
2016-12-09T09:12:41.037Z,84.68
2016-12-09T09:13:51.565Z,83.72
2016-12-09T09:15:02.091Z,83.14
2016-12-09T09:16:12.624Z,83.23
2016-12-09T09:17:23.150Z,83.23
2016-12-09T09:18:33.681Z,82.98
2016-12-09T09:19:44.210Z,82.46
2016-12-09T09:20:54.739Z,82.31
2016-12-09T09:22:05.271Z,82.65
2016-12-09T09:23:15.995Z,82.31
2016-12-09T09:24:26.521Z,82.31
2016-12-09T09:25:37.052Z,82.21
2016-12-09T09:26:47.588Z,82.79
2016-12-09T09:27:58.120Z,83.08
2016-12-09T09:29:09.151Z,82.11
2016-12-09T09:30:19.675Z,82.5
2016-12-09T09:31:30.202Z,82.21
2016-12-09T09:32:40.732Z,82.31
2016-12-09T09:33:51.262Z,81.29
2016-12-09T09:35:01.989Z,81.29
2016-12-09T09:36:12.521Z,81.29
2016-12-09T09:37:23.079Z,80.61
2016-12-09T09:38:33.614Z,80.8
2016-12-09T09:39:44.141Z,80.12
2016-12-09T09:40:54.672Z,80.99
2016-12-09T09:42:05.200Z,80.71
2016-12-09T09:43:16.230Z,79.83
2016-12-09T09:44:26.767Z,80.32
2016-12-09T09:45:37.293Z,80.61
2016-12-09T09:46:48.021Z,80.12
2016-12-09T09:47:58.551Z,80.32
2016-12-09T09:49:09.078Z,80.41
2016-12-09T09:50:34.139Z,80.12
2016-12-09T09:51:44.667Z,79.78
2016-12-09T09:52:55.397Z,79.39
2016-12-09T09:54:05.933Z,79.39
2016-12-09T09:55:16.983Z,79.78
2016-12-09T09:56:27.512Z,79.29
2016-12-09T09:57:38.243Z,78.42
2016-12-09T09:58:48.775Z,78.61
2016-12-09T09:59:59.303Z,78.71
2016-12-09T10:01:09.831Z,78.52
2016-12-09T10:02:20.360Z,78.81
2016-12-09T10:03:30.887Z,78.08
2016-12-09T10:04:41.415Z,78.36
2016-12-09T10:05:51.950Z,77.98
2016-12-09T10:07:17.006Z,77.98
2016-12-09T10:08:27.535Z,77.5
2016-12-09T10:09:38.263Z,77.98
2016-12-09T10:10:48.797Z,77.59
2016-12-09T10:11:59.328Z,76.33
2016-12-09T10:13:09.857Z,76.43
2016-12-09T10:14:20.388Z,76.62
2016-12-09T10:15:30.918Z,76.24
2016-12-09T10:18:06.508Z,75.85
2016-12-09T10:19:17.034Z,75.07
2016-12-09T10:20:27.562Z,74.59
2016-12-09T10:21:38.089Z,74.63
2016-12-09T10:22:48.619Z,74.21
2016-12-09T10:23:59.146Z,74.88
2016-12-09T10:25:09.876Z,74.15
2016-12-09T10:26:20.407Z,73.85
2016-12-09T10:27:30.945Z,73.37
2016-12-09T10:28:41.473Z,73.47
2016-12-09T10:29:52.003Z,74.05
2016-12-09T10:31:02.733Z,73.66
2016-12-09T10:32:13.263Z,73.18
2016-12-09T10:33:38.346Z,71.34
2016-12-09T10:34:49.370Z,71.44
2016-12-09T10:35:59.897Z,72.11
2016-12-09T10:37:10.650Z,71.62
2016-12-09T10:38:21.183Z,71.56
2016-12-09T10:39:31.678Z,71.37
2016-12-09T10:40:42.091Z,72.21
2016-12-09T10:41:52.699Z,72.02
2016-12-09T10:43:03.120Z,71.82
2016-12-09T10:44:13.527Z,71.37
2016-12-09T10:45:23.941Z,72.15
2016-12-09T10:46:34.351Z,71.76
2016-12-09T10:47:44.761Z,71.47
2016-12-09T10:48:55.177Z,71.28
2016-12-09T10:50:05.588Z,71.08
2016-12-09T10:51:16.008Z,71.37
2016-12-09T10:52:26.419Z,70.98
2016-12-09T10:55:02.003Z,70.98
2016-12-09T10:56:12.417Z,70.21
2016-12-09T10:57:22.830Z,70.89
2016-12-09T10:58:33.236Z,70.73
2016-12-09T10:59:43.748Z,69.95
2016-12-09T11:00:54.165Z,70.05
2016-12-09T11:02:04.579Z,70.63
2016-12-09T11:03:14.992Z,69.99
2016-12-09T11:04:25.408Z,70.18
2016-12-09T11:05:35.821Z,69.79
2016-12-09T11:06:46.229Z,69.67
2016-12-09T11:07:57.130Z,69.7
2016-12-09T11:09:08.056Z,69.76
2016-12-09T11:10:18.672Z,71.15
2016-12-09T11:11:29.085Z,69.7
2016-12-09T11:12:39.487Z,69.31
2016-12-09T11:13:49.899Z,69.79
2016-12-09T11:15:14.860Z,70.47
2016-12-09T11:16:25.269Z,70.37
2016-12-09T11:17:35.680Z,68.34
2016-12-09T11:18:46.091Z,69.21
2016-12-09T11:19:56.496Z,69.12
2016-12-09T11:21:07.110Z,68.54
2016-12-09T11:22:17.520Z,67.37
2016-12-09T11:23:27.943Z,67.57
2016-12-09T11:24:38.361Z,68.5
2016-12-09T11:25:48.770Z,68.5
2016-12-09T11:26:59.182Z,67.82
2016-12-09T11:28:09.590Z,68.44
2016-12-09T11:29:34.577Z,67.66
2016-12-09T11:32:10.154Z,67.85
2016-12-09T11:33:20.567Z,67.47
2016-12-09T11:34:30.976Z,67.37
2016-12-09T11:35:41.387Z,68.54
2016-12-09T11:36:51.812Z,68.66
2016-12-09T11:39:41.972Z,65.95
2016-12-09T11:40:52.382Z,65.01
2016-12-09T11:42:02.794Z,64.78
2016-12-09T11:43:13.405Z,65.47
2016-12-09T11:44:23.809Z,65.66
2016-12-09T11:45:34.706Z,64.72
2016-12-09T11:46:45.113Z,65.59
2016-12-09T11:47:55.527Z,64.62
2016-12-09T11:49:06.179Z,64.82
2016-12-09T11:50:16.715Z,65.69
2016-12-09T11:51:27.248Z,64.85
2016-12-09T11:52:52.307Z,63.98
2016-12-09T11:54:02.834Z,63.1
2016-12-09T11:55:13.365Z,63.39
2016-12-09T11:56:38.920Z,63.49
2016-12-09T11:57:49.449Z,62.94
2016-12-09T11:59:00.008Z,63.81
2016-12-09T12:00:25.096Z,62.84
2016-12-09T12:01:35.652Z,62.91
2016-12-09T12:02:46.678Z,63.04
2016-12-09T12:03:57.208Z,61.97
2016-12-09T12:05:07.741Z,61.02
2016-12-09T12:06:18.277Z,61.32
2016-12-09T12:07:28.805Z,60.15
2016-12-09T12:08:39.335Z,59.59
2016-12-09T12:09:49.866Z,59.5
2016-12-09T12:11:00.601Z,59.79
2016-12-09T12:12:11.139Z,59.53
2016-12-09T12:13:22.153Z,57.59
2016-12-09T12:14:47.630Z,58.29
2016-12-09T12:15:58.068Z,59.05
2016-12-09T12:17:08.509Z,58.85
2016-12-09T12:18:18.949Z,58.29
2016-12-09T12:19:29.387Z,56.15
2016-12-09T12:20:39.854Z,54.62
2016-12-09T12:21:50.291Z,54.16
2016-12-09T12:23:00.734Z,54.91
2016-12-09T12:24:11.657Z,55.79
2016-12-09T12:25:22.096Z,55.47
2016-12-09T12:26:32.535Z,55.37
2016-12-09T12:27:43.010Z,55.21
2016-12-09T12:28:53.455Z,55.76
2016-12-09T12:30:03.892Z,55.76
2016-12-09T12:31:14.345Z,57.1
2016-12-09T12:32:24.780Z,56.77
2016-12-09T12:33:35.420Z,57.85
2016-12-09T12:34:45.859Z,57.95
2016-12-09T12:35:56.301Z,56.71
2016-12-09T12:37:06.739Z,56.71
2016-12-09T12:38:17.176Z,56.35
2016-12-09T12:39:27.818Z,56.37
2016-12-09T12:40:52.807Z,55.99
2016-12-09T12:42:03.255Z,57.42
2016-12-09T12:43:13.700Z,56.67
2016-12-09T12:44:24.144Z,56.54
2016-12-09T12:45:34.585Z,57.03
2016-12-09T12:46:45.520Z,57.42
2016-12-09T12:47:55.959Z,57.32
2016-12-09T12:49:06.398Z,57.22
2016-12-09T12:50:17.236Z,57.45
2016-12-09T12:51:27.675Z,55.01
2016-12-09T12:52:38.146Z,55.6
2016-12-09T12:53:48.583Z,55.89
2016-12-09T12:54:59.023Z,56.67
2016-12-09T12:56:09.479Z,55.04
2016-12-09T12:57:34.983Z,55.52
2016-12-09T12:58:45.471Z,55.13
2016-12-09T12:59:56.006Z,55.23
2016-12-09T13:01:06.593Z,55.33
2016-12-09T13:02:17.126Z,55.13
2016-12-09T13:03:27.657Z,55.52
